sensor_id;sensor_type;location;lat;lon;timestamp;P1;durP1;ratioP1;P2;durP2;ratioP2
3547;SDS011;1788;49.400;11.092;2023-04-23T00:02:24;4.33;;;3.80;;
3547;SDS011;1788;49.400;11.092;2023-04-23T00:04:51;4.40;;;3.73;;
3547;SDS011;1788;49.400;11.092;2023-04-23T00:07:18;4.10;;;3.90;;
3547;SDS011;1788;49.400;11.092;2023-04-23T00:09:44;6.07;;;3.80;;
3547;SDS011;1788;49.400;11.092;2023-04-23T00:12:11;7.13;;;5.13;;
3547;SDS011;1788;49.400;11.092;2023-04-23T00:14:38;6.73;;;4.60;;
3547;SDS011;1788;49.400;11.092;2023-04-23T00:17:05;8.77;;;5.00;;
3547;SDS011;1788;49.400;11.092;2023-04-23T00:19:32;7.60;;;4.40;;
3547;SDS011;1788;49.400;11.092;2023-04-23T00:21:58;3.90;;;3.70;;
3547;SDS011;1788;49.400;11.092;2023-04-23T00:24:25;4.23;;;3.70;;
3547;SDS011;1788;49.400;11.092;2023-04-23T00:26:52;3.97;;;3.47;;
3547;SDS011;1788;49.400;11.092;2023-04-23T00:29:18;4.43;;;3.83;;
3547;SDS011;1788;49.400;11.092;2023-04-23T00:31:46;5.97;;;4.03;;
3547;SDS011;1788;49.400;11.092;2023-04-23T00:34:12;7.47;;;4.27;;
3547;SDS011;1788;49.400;11.092;2023-04-23T00:36:40;4.57;;;4.10;;
3547;SDS011;1788;49.400;11.092;2023-04-23T00:39:06;4.10;;;3.50;;
3547;SDS011;1788;49.400;11.092;2023-04-23T00:41:33;5.00;;;4.13;;
3547;SDS011;1788;49.400;11.092;2023-04-23T00:43:59;5.13;;;3.77;;
3547;SDS011;1788;49.400;11.092;2023-04-23T00:46:26;4.47;;;3.80;;
3547;SDS011;1788;49.400;11.092;2023-04-23T00:48:53;5.43;;;4.60;;
3547;SDS011;1788;49.400;11.092;2023-04-23T00:51:20;6.67;;;4.33;;
3547;SDS011;1788;49.400;11.092;2023-04-23T00:53:47;4.73;;;3.80;;
3547;SDS011;1788;49.400;11.092;2023-04-23T00:56:14;5.50;;;4.10;;
3547;SDS011;1788;49.400;11.092;2023-04-23T01:01:07;6.53;;;3.90;;
3547;SDS011;1788;49.400;11.092;2023-04-23T01:03:34;6.50;;;4.57;;
3547;SDS011;1788;49.400;11.092;2023-04-23T01:06:02;5.03;;;3.57;;
3547;SDS011;1788;49.400;11.092;2023-04-23T01:08:28;3.90;;;3.70;;
3547;SDS011;1788;49.400;11.092;2023-04-23T01:10:58;5.50;;;3.87;;
3547;SDS011;1788;49.400;11.092;2023-04-23T01:13:25;4.07;;;3.83;;
3547;SDS011;1788;49.400;11.092;2023-04-23T01:15:52;4.87;;;3.60;;
3547;SDS011;1788;49.400;11.092;2023-04-23T01:18:18;4.83;;;4.53;;
3547;SDS011;1788;49.400;11.092;2023-04-23T01:20:45;5.07;;;3.60;;
3547;SDS011;1788;49.400;11.092;2023-04-23T01:23:12;7.00;;;4.20;;
3547;SDS011;1788;49.400;11.092;2023-04-23T01:25:38;5.37;;;4.13;;
3547;SDS011;1788;49.400;11.092;2023-04-23T01:28:06;4.07;;;3.90;;
3547;SDS011;1788;49.400;11.092;2023-04-23T01:30:32;6.33;;;4.33;;
3547;SDS011;1788;49.400;11.092;2023-04-23T01:33:00;5.27;;;3.83;;
3547;SDS011;1788;49.400;11.092;2023-04-23T01:35:26;5.20;;;4.37;;
3547;SDS011;1788;49.400;11.092;2023-04-23T01:37:53;6.27;;;4.70;;
3547;SDS011;1788;49.400;11.092;2023-04-23T01:40:20;5.70;;;4.30;;
3547;SDS011;1788;49.400;11.092;2023-04-23T01:42:47;6.30;;;3.60;;
3547;SDS011;1788;49.400;11.092;2023-04-23T01:45:15;4.60;;;3.80;;
3547;SDS011;1788;49.400;11.092;2023-04-23T01:47:41;4.17;;;3.93;;
3547;SDS011;1788;49.400;11.092;2023-04-23T01:50:08;4.67;;;4.07;;
3547;SDS011;1788;49.400;11.092;2023-04-23T01:52:34;3.83;;;3.63;;
3547;SDS011;1788;49.400;11.092;2023-04-23T01:55:01;3.83;;;3.67;;
3547;SDS011;1788;49.400;11.092;2023-04-23T01:57:28;4.73;;;4.13;;
3547;SDS011;1788;49.400;11.092;2023-04-23T01:59:57;4.77;;;3.77;;
3547;SDS011;1788;49.400;11.092;2023-04-23T02:02:22;4.77;;;3.90;;
3547;SDS011;1788;49.400;11.092;2023-04-23T02:04:49;4.97;;;4.13;;
3547;SDS011;1788;49.400;11.092;2023-04-23T02:07:16;4.23;;;3.83;;
3547;SDS011;1788;49.400;11.092;2023-04-23T02:09:42;4.90;;;4.60;;
3547;SDS011;1788;49.400;11.092;2023-04-23T02:12:09;6.00;;;4.13;;
3547;SDS011;1788;49.400;11.092;2023-04-23T02:14:36;6.00;;;4.50;;
3547;SDS011;1788;49.400;11.092;2023-04-23T02:17:03;4.60;;;4.30;;
3547;SDS011;1788;49.400;11.092;2023-04-23T02:19:29;4.57;;;3.70;;
3547;SDS011;1788;49.400;11.092;2023-04-23T02:21:57;8.37;;;4.30;;
3547;SDS011;1788;49.400;11.092;2023-04-23T02:24:23;4.93;;;4.27;;
3547;SDS011;1788;49.400;11.092;2023-04-23T02:26:51;4.07;;;3.87;;
3547;SDS011;1788;49.400;11.092;2023-04-23T02:29:17;5.83;;;4.20;;
3547;SDS011;1788;49.400;11.092;2023-04-23T02:31:44;4.40;;;4.10;;
3547;SDS011;1788;49.400;11.092;2023-04-23T02:34:11;4.83;;;4.53;;
3547;SDS011;1788;49.400;11.092;2023-04-23T02:36:37;4.20;;;3.93;;
3547;SDS011;1788;49.400;11.092;2023-04-23T02:39:05;4.17;;;3.93;;
3547;SDS011;1788;49.400;11.092;2023-04-23T02:41:31;6.23;;;4.07;;
3547;SDS011;1788;49.400;11.092;2023-04-23T02:43:59;5.30;;;3.90;;
3547;SDS011;1788;49.400;11.092;2023-04-23T02:46:25;5.07;;;4.00;;
3547;SDS011;1788;49.400;11.092;2023-04-23T02:48:52;5.13;;;4.30;;
3547;SDS011;1788;49.400;11.092;2023-04-23T02:51:19;4.77;;;4.00;;
3547;SDS011;1788;49.400;11.092;2023-04-23T02:53:45;4.50;;;4.00;;
3547;SDS011;1788;49.400;11.092;2023-04-23T02:56:12;3.80;;;3.60;;
3547;SDS011;1788;49.400;11.092;2023-04-23T02:58:38;5.03;;;3.80;;
3547;SDS011;1788;49.400;11.092;2023-04-23T03:01:05;3.67;;;3.47;;
3547;SDS011;1788;49.400;11.092;2023-04-23T03:03:32;4.07;;;3.90;;
3547;SDS011;1788;49.400;11.092;2023-04-23T03:05:59;6.23;;;4.10;;
3547;SDS011;1788;49.400;11.092;2023-04-23T03:08:25;6.03;;;4.20;;
3547;SDS011;1788;49.400;11.092;2023-04-23T03:10:51;4.03;;;3.83;;
3547;SDS011;1788;49.400;11.092;2023-04-23T03:13:18;3.73;;;3.60;;
3547;SDS011;1788;49.400;11.092;2023-04-23T03:15:45;3.50;;;3.30;;
3547;SDS011;1788;49.400;11.092;2023-04-23T03:18:11;4.13;;;3.90;;
3547;SDS011;1788;49.400;11.092;2023-04-23T03:20:38;5.30;;;3.50;;
3547;SDS011;1788;49.400;11.092;2023-04-23T03:23:05;7.17;;;3.37;;
3547;SDS011;1788;49.400;11.092;2023-04-23T03:25:32;4.90;;;3.37;;
3547;SDS011;1788;49.400;11.092;2023-04-23T03:27:59;4.70;;;3.07;;
3547;SDS011;1788;49.400;11.092;2023-04-23T03:30:26;4.20;;;3.27;;
3547;SDS011;1788;49.400;11.092;2023-04-23T03:32:54;3.43;;;3.23;;
3547;SDS011;1788;49.400;11.092;2023-04-23T03:35:19;3.33;;;3.17;;
3547;SDS011;1788;49.400;11.092;2023-04-23T03:37:46;4.60;;;3.27;;
3547;SDS011;1788;49.400;11.092;2023-04-23T03:40:13;4.00;;;3.40;;
3547;SDS011;1788;49.400;11.092;2023-04-23T03:42:40;3.13;;;2.93;;
3547;SDS011;1788;49.400;11.092;2023-04-23T03:45:07;3.27;;;2.70;;
3547;SDS011;1788;49.400;11.092;2023-04-23T03:47:34;3.20;;;3.00;;
3547;SDS011;1788;49.400;11.092;2023-04-23T03:50:00;3.60;;;3.37;;
3547;SDS011;1788;49.400;11.092;2023-04-23T03:52:27;3.37;;;3.17;;
3547;SDS011;1788;49.400;11.092;2023-04-23T03:54:53;3.90;;;3.47;;
3547;SDS011;1788;49.400;11.092;2023-04-23T03:57:21;6.50;;;3.97;;
3547;SDS011;1788;49.400;11.092;2023-04-23T03:59:47;3.60;;;3.40;;
3547;SDS011;1788;49.400;11.092;2023-04-23T04:02:15;3.73;;;3.53;;
3547;SDS011;1788;49.400;11.092;2023-04-23T04:04:41;4.17;;;3.43;;
3547;SDS011;1788;49.400;11.092;2023-04-23T04:07:08;3.93;;;3.63;;
3547;SDS011;1788;49.400;11.092;2023-04-23T04:09:35;5.07;;;4.10;;
3547;SDS011;1788;49.400;11.092;2023-04-23T04:12:01;8.03;;;5.30;;
3547;SDS011;1788;49.400;11.092;2023-04-23T04:14:29;6.23;;;5.17;;
3547;SDS011;1788;49.400;11.092;2023-04-23T04:16:55;7.63;;;4.60;;
3547;SDS011;1788;49.400;11.092;2023-04-23T04:19:23;6.63;;;5.60;;
3547;SDS011;1788;49.400;11.092;2023-04-23T04:21:49;6.17;;;5.23;;
3547;SDS011;1788;49.400;11.092;2023-04-23T04:24:16;6.07;;;5.17;;
3547;SDS011;1788;49.400;11.092;2023-04-23T04:26:43;7.70;;;5.03;;
3547;SDS011;1788;49.400;11.092;2023-04-23T04:29:09;5.50;;;4.80;;
3547;SDS011;1788;49.400;11.092;2023-04-23T04:31:36;6.47;;;4.43;;
3547;SDS011;1788;49.400;11.092;2023-04-23T04:34:02;7.17;;;5.27;;
3547;SDS011;1788;49.400;11.092;2023-04-23T04:36:32;5.67;;;4.87;;
3547;SDS011;1788;49.400;11.092;2023-04-23T04:38:59;8.97;;;5.27;;
3547;SDS011;1788;49.400;11.092;2023-04-23T04:41:26;10.93;;;5.47;;
3547;SDS011;1788;49.400;11.092;2023-04-23T04:43:53;7.53;;;5.90;;
3547;SDS011;1788;49.400;11.092;2023-04-23T04:46:20;8.00;;;5.50;;
3547;SDS011;1788;49.400;11.092;2023-04-23T04:48:46;7.20;;;5.30;;
3547;SDS011;1788;49.400;11.092;2023-04-23T04:51:13;11.53;;;6.07;;
3547;SDS011;1788;49.400;11.092;2023-04-23T04:53:39;8.57;;;5.97;;
3547;SDS011;1788;49.400;11.092;2023-04-23T04:56:06;10.63;;;6.03;;
3547;SDS011;1788;49.400;11.092;2023-04-23T04:58:32;6.93;;;5.40;;
3547;SDS011;1788;49.400;11.092;2023-04-23T05:00:59;6.17;;;5.17;;
3547;SDS011;1788;49.400;11.092;2023-04-23T05:03:26;7.27;;;5.70;;
3547;SDS011;1788;49.400;11.092;2023-04-23T05:05:53;6.93;;;5.13;;
3547;SDS011;1788;49.400;11.092;2023-04-23T05:08:21;6.97;;;5.10;;
3547;SDS011;1788;49.400;11.092;2023-04-23T05:10:47;5.50;;;5.00;;
3547;SDS011;1788;49.400;11.092;2023-04-23T05:13:14;6.90;;;4.97;;
3547;SDS011;1788;49.400;11.092;2023-04-23T05:15:40;8.00;;;4.80;;
3547;SDS011;1788;49.400;11.092;2023-04-23T05:18:08;6.73;;;5.07;;
3547;SDS011;1788;49.400;11.092;2023-04-23T05:20:34;5.67;;;5.00;;
3547;SDS011;1788;49.400;11.092;2023-04-23T05:23:01;6.77;;;4.87;;
3547;SDS011;1788;49.400;11.092;2023-04-23T05:25:29;6.73;;;4.93;;
3547;SDS011;1788;49.400;11.092;2023-04-23T05:27:55;4.83;;;4.53;;
3547;SDS011;1788;49.400;11.092;2023-04-23T05:30:22;7.63;;;5.70;;
3547;SDS011;1788;49.400;11.092;2023-04-23T05:32:48;6.47;;;5.03;;
3547;SDS011;1788;49.400;11.092;2023-04-23T05:35:15;9.40;;;5.00;;
3547;SDS011;1788;49.400;11.092;2023-04-23T05:37:42;6.50;;;4.90;;
3547;SDS011;1788;49.400;11.092;2023-04-23T05:40:09;5.97;;;5.47;;
3547;SDS011;1788;49.400;11.092;2023-04-23T05:42:36;6.50;;;4.83;;
3547;SDS011;1788;49.400;11.092;2023-04-23T05:45:03;5.03;;;4.50;;
3547;SDS011;1788;49.400;11.092;2023-04-23T05:47:29;5.03;;;4.27;;
3547;SDS011;1788;49.400;11.092;2023-04-23T05:49:56;6.50;;;4.50;;
3547;SDS011;1788;49.400;11.092;2023-04-23T05:52:22;6.90;;;4.60;;
3547;SDS011;1788;49.400;11.092;2023-04-23T05:54:50;5.03;;;4.43;;
3547;SDS011;1788;49.400;11.092;2023-04-23T05:57:17;8.43;;;5.20;;
3547;SDS011;1788;49.400;11.092;2023-04-23T05:59:44;5.77;;;4.63;;
3547;SDS011;1788;49.400;11.092;2023-04-23T06:02:10;7.13;;;4.63;;
3547;SDS011;1788;49.400;11.092;2023-04-23T06:04:38;5.03;;;4.70;;
3547;SDS011;1788;49.400;11.092;2023-04-23T06:07:05;9.50;;;4.97;;
3547;SDS011;1788;49.400;11.092;2023-04-23T06:09:31;6.57;;;6.17;;
3547;SDS011;1788;49.400;11.092;2023-04-23T06:11:58;6.17;;;4.30;;
3547;SDS011;1788;49.400;11.092;2023-04-23T06:14:24;5.40;;;4.60;;
3547;SDS011;1788;49.400;11.092;2023-04-23T06:16:52;6.63;;;5.50;;
3547;SDS011;1788;49.400;11.092;2023-04-23T06:19:18;8.30;;;5.30;;
3547;SDS011;1788;49.400;11.092;2023-04-23T06:21:46;6.93;;;5.33;;
3547;SDS011;1788;49.400;11.092;2023-04-23T06:24:12;6.37;;;4.87;;
3547;SDS011;1788;49.400;11.092;2023-04-23T06:26:39;8.60;;;5.37;;
3547;SDS011;1788;49.400;11.092;2023-04-23T06:29:05;5.93;;;5.63;;
3547;SDS011;1788;49.400;11.092;2023-04-23T06:31:32;7.83;;;5.17;;
3547;SDS011;1788;49.400;11.092;2023-04-23T06:33:59;8.07;;;5.47;;
3547;SDS011;1788;49.400;11.092;2023-04-23T06:36:26;10.63;;;6.13;;
3547;SDS011;1788;49.400;11.092;2023-04-23T06:38:53;7.00;;;4.40;;
3547;SDS011;1788;49.400;11.092;2023-04-23T06:41:20;7.77;;;5.00;;
3547;SDS011;1788;49.400;11.092;2023-04-23T06:43:47;5.77;;;4.43;;
3547;SDS011;1788;49.400;11.092;2023-04-23T06:46:13;5.17;;;4.90;;
3547;SDS011;1788;49.400;11.092;2023-04-23T06:48:40;6.90;;;5.07;;
3547;SDS011;1788;49.400;11.092;2023-04-23T06:51:07;8.13;;;5.17;;
3547;SDS011;1788;49.400;11.092;2023-04-23T06:53:34;8.07;;;4.83;;
3547;SDS011;1788;49.400;11.092;2023-04-23T06:56:01;11.17;;;5.60;;
3547;SDS011;1788;49.400;11.092;2023-04-23T06:58:28;7.37;;;5.60;;
3547;SDS011;1788;49.400;11.092;2023-04-23T07:00:56;7.00;;;5.00;;
3547;SDS011;1788;49.400;11.092;2023-04-23T07:03:22;9.17;;;5.90;;
3547;SDS011;1788;49.400;11.092;2023-04-23T07:05:48;7.00;;;5.00;;
3547;SDS011;1788;49.400;11.092;2023-04-23T07:08:15;7.10;;;5.20;;
3547;SDS011;1788;49.400;11.092;2023-04-23T07:10:42;7.43;;;5.67;;
3547;SDS011;1788;49.400;11.092;2023-04-23T07:13:09;6.50;;;5.77;;
3547;SDS011;1788;49.400;11.092;2023-04-23T07:15:36;8.47;;;5.70;;
3547;SDS011;1788;49.400;11.092;2023-04-23T07:18:03;7.43;;;6.67;;
3547;SDS011;1788;49.400;11.092;2023-04-23T07:20:29;7.40;;;5.90;;
3547;SDS011;1788;49.400;11.092;2023-04-23T07:22:56;10.80;;;7.50;;
3547;SDS011;1788;49.400;11.092;2023-04-23T07:25:22;8.23;;;6.87;;
3547;SDS011;1788;49.400;11.092;2023-04-23T07:27:49;7.47;;;5.80;;
3547;SDS011;1788;49.400;11.092;2023-04-23T07:30:15;8.00;;;6.00;;
3547;SDS011;1788;49.400;11.092;2023-04-23T07:32:42;7.23;;;5.90;;
3547;SDS011;1788;49.400;11.092;2023-04-23T07:35:09;5.97;;;5.43;;
3547;SDS011;1788;49.400;11.092;2023-04-23T07:37:36;8.47;;;6.27;;
3547;SDS011;1788;49.400;11.092;2023-04-23T07:40:03;10.40;;;6.40;;
3547;SDS011;1788;49.400;11.092;2023-04-23T07:42:30;6.57;;;5.57;;
3547;SDS011;1788;49.400;11.092;2023-04-23T07:44:57;7.67;;;5.50;;
3547;SDS011;1788;49.400;11.092;2023-04-23T07:47:24;6.80;;;5.57;;
3547;SDS011;1788;49.400;11.092;2023-04-23T07:49:50;7.33;;;5.70;;
3547;SDS011;1788;49.400;11.092;2023-04-23T07:52:17;7.70;;;5.67;;
3547;SDS011;1788;49.400;11.092;2023-04-23T07:54:44;8.83;;;5.37;;
3547;SDS011;1788;49.400;11.092;2023-04-23T07:57:11;6.63;;;5.27;;
3547;SDS011;1788;49.400;11.092;2023-04-23T07:59:38;7.77;;;5.33;;
3547;SDS011;1788;49.400;11.092;2023-04-23T08:02:05;8.57;;;4.97;;
3547;SDS011;1788;49.400;11.092;2023-04-23T08:04:32;7.90;;;5.30;;
3547;SDS011;1788;49.400;11.092;2023-04-23T08:06:59;4.30;;;4.00;;
3547;SDS011;1788;49.400;11.092;2023-04-23T08:09:25;6.03;;;4.63;;
3547;SDS011;1788;49.400;11.092;2023-04-23T08:11:52;6.13;;;4.33;;
3547;SDS011;1788;49.400;11.092;2023-04-23T08:14:19;5.10;;;4.57;;
3547;SDS011;1788;49.400;11.092;2023-04-23T08:16:47;4.53;;;4.07;;
3547;SDS011;1788;49.400;11.092;2023-04-23T08:19:14;6.03;;;4.57;;
3547;SDS011;1788;49.400;11.092;2023-04-23T08:21:40;6.13;;;4.40;;
3547;SDS011;1788;49.400;11.092;2023-04-23T08:24:07;6.80;;;4.50;;
3547;SDS011;1788;49.400;11.092;2023-04-23T08:26:34;6.43;;;4.30;;
3547;SDS011;1788;49.400;11.092;2023-04-23T08:29:01;5.13;;;4.33;;
3547;SDS011;1788;49.400;11.092;2023-04-23T08:31:28;6.60;;;4.40;;
3547;SDS011;1788;49.400;11.092;2023-04-23T08:33:54;6.30;;;4.40;;
3547;SDS011;1788;49.400;11.092;2023-04-23T08:36:21;5.53;;;4.10;;
3547;SDS011;1788;49.400;11.092;2023-04-23T08:38:49;9.57;;;4.93;;
3547;SDS011;1788;49.400;11.092;2023-04-23T08:41:17;6.73;;;4.23;;
3547;SDS011;1788;49.400;11.092;2023-04-23T08:43:46;4.77;;;4.33;;
3547;SDS011;1788;49.400;11.092;2023-04-23T08:46:11;4.87;;;3.30;;
3547;SDS011;1788;49.400;11.092;2023-04-23T08:48:37;4.63;;;4.20;;
3547;SDS011;1788;49.400;11.092;2023-04-23T08:51:03;5.50;;;3.47;;
3547;SDS011;1788;49.400;11.092;2023-04-23T08:53:30;4.03;;;3.87;;
3547;SDS011;1788;49.400;11.092;2023-04-23T08:55:57;4.07;;;3.37;;
3547;SDS011;1788;49.400;11.092;2023-04-23T08:58:24;4.07;;;3.30;;
3547;SDS011;1788;49.400;11.092;2023-04-23T09:00:51;3.43;;;2.90;;
3547;SDS011;1788;49.400;11.092;2023-04-23T09:03:18;4.53;;;3.30;;
3547;SDS011;1788;49.400;11.092;2023-04-23T09:05:45;3.50;;;3.00;;
3547;SDS011;1788;49.400;11.092;2023-04-23T09:08:11;2.77;;;2.57;;
3547;SDS011;1788;49.400;11.092;2023-04-23T09:10:39;3.07;;;2.87;;
3547;SDS011;1788;49.400;11.092;2023-04-23T09:13:05;2.73;;;2.53;;
3547;SDS011;1788;49.400;11.092;2023-04-23T09:15:32;3.83;;;3.10;;
3547;SDS011;1788;49.400;11.092;2023-04-23T09:17:59;2.77;;;2.57;;
3547;SDS011;1788;49.400;11.092;2023-04-23T09:20:26;3.47;;;2.93;;
3547;SDS011;1788;49.400;11.092;2023-04-23T09:22:53;3.13;;;2.90;;
3547;SDS011;1788;49.400;11.092;2023-04-23T09:25:21;3.77;;;2.80;;
3547;SDS011;1788;49.400;11.092;2023-04-23T09:27:47;2.53;;;2.33;;
3547;SDS011;1788;49.400;11.092;2023-04-23T09:30:13;2.50;;;2.30;;
3547;SDS011;1788;49.400;11.092;2023-04-23T09:32:41;3.13;;;2.77;;
3547;SDS011;1788;49.400;11.092;2023-04-23T09:35:08;2.63;;;2.43;;
3547;SDS011;1788;49.400;11.092;2023-04-23T09:37:34;2.57;;;2.37;;
3547;SDS011;1788;49.400;11.092;2023-04-23T09:40:02;2.63;;;2.27;;
3547;SDS011;1788;49.400;11.092;2023-04-23T09:42:28;2.43;;;2.23;;
3547;SDS011;1788;49.400;11.092;2023-04-23T09:44:56;4.60;;;2.70;;
3547;SDS011;1788;49.400;11.092;2023-04-23T09:47:21;3.43;;;2.30;;
3547;SDS011;1788;49.400;11.092;2023-04-23T09:49:48;2.43;;;2.00;;
3547;SDS011;1788;49.400;11.092;2023-04-23T09:52:15;4.77;;;2.67;;
3547;SDS011;1788;49.400;11.092;2023-04-23T09:54:42;3.10;;;2.90;;
3547;SDS011;1788;49.400;11.092;2023-04-23T09:57:09;3.67;;;2.50;;
3547;SDS011;1788;49.400;11.092;2023-04-23T09:59:36;4.00;;;2.37;;
3547;SDS011;1788;49.400;11.092;2023-04-23T10:02:04;3.57;;;2.07;;
3547;SDS011;1788;49.400;11.092;2023-04-23T10:04:30;3.10;;;2.43;;
3547;SDS011;1788;49.400;11.092;2023-04-23T10:06:58;2.80;;;2.20;;
3547;SDS011;1788;49.400;11.092;2023-04-23T10:09:24;2.47;;;2.27;;
3547;SDS011;1788;49.400;11.092;2023-04-23T10:14:17;2.30;;;2.10;;
3547;SDS011;1788;49.400;11.092;2023-04-23T10:16:43;2.43;;;1.90;;
3547;SDS011;1788;49.400;11.092;2023-04-23T10:19:13;2.20;;;2.00;;
3547;SDS011;1788;49.400;11.092;2023-04-23T10:21:37;2.43;;;2.13;;
3547;SDS011;1788;49.400;11.092;2023-04-23T10:24:05;2.10;;;1.83;;
3547;SDS011;1788;49.400;11.092;2023-04-23T10:26:31;2.57;;;2.37;;
3547;SDS011;1788;49.400;11.092;2023-04-23T10:28:59;1.90;;;1.80;;
3547;SDS011;1788;49.400;11.092;2023-04-23T10:31:26;3.07;;;2.30;;
3547;SDS011;1788;49.400;11.092;2023-04-23T10:33:53;2.07;;;1.80;;
3547;SDS011;1788;49.400;11.092;2023-04-23T10:36:20;1.83;;;1.73;;
3547;SDS011;1788;49.400;11.092;2023-04-23T10:38:47;2.50;;;2.30;;
3547;SDS011;1788;49.400;11.092;2023-04-23T10:41:14;2.60;;;2.07;;
3547;SDS011;1788;49.400;11.092;2023-04-23T10:43:41;2.47;;;2.13;;
3547;SDS011;1788;49.400;11.092;2023-04-23T10:51:02;2.53;;;1.80;;
3547;SDS011;1788;49.400;11.092;2023-04-23T10:53:28;2.73;;;2.07;;
3547;SDS011;1788;49.400;11.092;2023-04-23T10:58:21;2.23;;;2.03;;
3547;SDS011;1788;49.400;11.092;2023-04-23T11:00:48;2.07;;;1.93;;
3547;SDS011;1788;49.400;11.092;2023-04-23T11:05:43;2.23;;;2.03;;
3547;SDS011;1788;49.400;11.092;2023-04-23T11:08:09;2.00;;;1.90;;
3547;SDS011;1788;49.400;11.092;2023-04-23T11:10:50;1.97;;;1.60;;
3547;SDS011;1788;49.400;11.092;2023-04-23T11:15:29;1.50;;;1.40;;
3547;SDS011;1788;49.400;11.092;2023-04-23T11:17:57;1.27;;;1.20;;
3547;SDS011;1788;49.400;11.092;2023-04-23T11:20:22;1.67;;;1.60;;
3547;SDS011;1788;49.400;11.092;2023-04-23T11:22:51;2.67;;;1.80;;
3547;SDS011;1788;49.400;11.092;2023-04-23T11:27:44;1.20;;;1.10;;
3547;SDS011;1788;49.400;11.092;2023-04-23T11:30:11;1.50;;;1.23;;
3547;SDS011;1788;49.400;11.092;2023-04-23T11:32:38;2.00;;;1.37;;
3547;SDS011;1788;49.400;11.092;2023-04-23T11:35:04;1.53;;;1.47;;
3547;SDS011;1788;49.400;11.092;2023-04-23T11:37:31;1.60;;;1.50;;
3547;SDS011;1788;49.400;11.092;2023-04-23T11:39:58;1.40;;;1.30;;
3547;SDS011;1788;49.400;11.092;2023-04-23T11:42:25;1.80;;;1.70;;
3547;SDS011;1788;49.400;11.092;2023-04-23T11:44:52;2.40;;;1.37;;
3547;SDS011;1788;49.400;11.092;2023-04-23T11:47:19;1.23;;;1.20;;
3547;SDS011;1788;49.400;11.092;2023-04-23T11:49:46;1.20;;;1.10;;
3547;SDS011;1788;49.400;11.092;2023-04-23T11:52:13;1.80;;;1.30;;
3547;SDS011;1788;49.400;11.092;2023-04-23T11:54:39;1.57;;;1.30;;
3547;SDS011;1788;49.400;11.092;2023-04-23T11:57:05;1.57;;;1.50;;
3547;SDS011;1788;49.400;11.092;2023-04-23T11:59:32;2.37;;;1.10;;
3547;SDS011;1788;49.400;11.092;2023-04-23T12:01:58;1.37;;;1.27;;
3547;SDS011;1788;49.400;11.092;2023-04-23T12:04:27;1.77;;;0.97;;
3547;SDS011;1788;49.400;11.092;2023-04-23T12:06:53;1.57;;;1.33;;
3547;SDS011;1788;49.400;11.092;2023-04-23T12:09:21;1.43;;;1.07;;
3547;SDS011;1788;49.400;11.092;2023-04-23T12:11:46;1.50;;;1.37;;
3547;SDS011;1788;49.400;11.092;2023-04-23T12:14:14;1.30;;;1.20;;
3547;SDS011;1788;49.400;11.092;2023-04-23T12:21:45;1.10;;;1.00;;
3547;SDS011;1788;49.400;11.092;2023-04-23T12:24:02;1.10;;;1.00;;
3547;SDS011;1788;49.400;11.092;2023-04-23T12:26:28;1.43;;;1.10;;
3547;SDS011;1788;49.400;11.092;2023-04-23T12:28:55;1.33;;;1.23;;
3547;SDS011;1788;49.400;11.092;2023-04-23T12:31:22;1.10;;;1.00;;
3547;SDS011;1788;49.400;11.092;2023-04-23T12:36:15;1.47;;;1.30;;
3547;SDS011;1788;49.400;11.092;2023-04-23T12:38:41;1.20;;;1.10;;
3547;SDS011;1788;49.400;11.092;2023-04-23T12:41:08;1.07;;;0.97;;
3547;SDS011;1788;49.400;11.092;2023-04-23T12:43:35;1.27;;;1.00;;
3547;SDS011;1788;49.400;11.092;2023-04-23T12:46:02;1.83;;;1.10;;
3547;SDS011;1788;49.400;11.092;2023-04-23T12:48:30;1.50;;;1.40;;
3547;SDS011;1788;49.400;11.092;2023-04-23T12:50:57;1.13;;;1.03;;
3547;SDS011;1788;49.400;11.092;2023-04-23T12:53:25;1.07;;;1.03;;
3547;SDS011;1788;49.400;11.092;2023-04-23T12:55:52;1.50;;;1.30;;
3547;SDS011;1788;49.400;11.092;2023-04-23T12:58:19;1.50;;;1.40;;
3547;SDS011;1788;49.400;11.092;2023-04-23T13:00:46;1.13;;;0.80;;
3547;SDS011;1788;49.400;11.092;2023-04-23T13:03:13;1.23;;;1.13;;
3547;SDS011;1788;49.400;11.092;2023-04-23T13:05:40;1.27;;;1.17;;
3547;SDS011;1788;49.400;11.092;2023-04-23T13:08:06;1.30;;;1.20;;
3547;SDS011;1788;49.400;11.092;2023-04-23T13:10:33;1.80;;;1.20;;
3547;SDS011;1788;49.400;11.092;2023-04-23T13:12:59;2.93;;;1.33;;
3547;SDS011;1788;49.400;11.092;2023-04-23T13:15:26;1.37;;;1.17;;
3547;SDS011;1788;49.400;11.092;2023-04-23T13:17:53;1.50;;;1.40;;
3547;SDS011;1788;49.400;11.092;2023-04-23T13:20:19;1.10;;;1.00;;
3547;SDS011;1788;49.400;11.092;2023-04-23T13:22:47;1.20;;;1.10;;
3547;SDS011;1788;49.400;11.092;2023-04-23T13:25:13;1.90;;;1.70;;
3547;SDS011;1788;49.400;11.092;2023-04-23T13:27:41;1.10;;;1.00;;
3547;SDS011;1788;49.400;11.092;2023-04-23T13:30:07;0.87;;;0.77;;
3547;SDS011;1788;49.400;11.092;2023-04-23T13:32:34;1.77;;;1.53;;
3547;SDS011;1788;49.400;11.092;2023-04-23T13:35:01;1.40;;;1.30;;
3547;SDS011;1788;49.400;11.092;2023-04-23T13:37:27;1.50;;;1.23;;
3547;SDS011;1788;49.400;11.092;2023-04-23T13:39:56;1.40;;;1.30;;
3547;SDS011;1788;49.400;11.092;2023-04-23T13:42:23;0.90;;;0.87;;
3547;SDS011;1788;49.400;11.092;2023-04-23T13:44:49;1.30;;;1.23;;
3547;SDS011;1788;49.400;11.092;2023-04-23T13:47:18;1.77;;;1.50;;
3547;SDS011;1788;49.400;11.092;2023-04-23T13:49:44;1.43;;;1.10;;
3547;SDS011;1788;49.400;11.092;2023-04-23T13:52:11;1.37;;;1.27;;
3547;SDS011;1788;49.400;11.092;2023-04-23T13:54:38;1.50;;;1.40;;
3547;SDS011;1788;49.400;11.092;2023-04-23T13:57:04;2.03;;;1.20;;
3547;SDS011;1788;49.400;11.092;2023-04-23T13:59:31;1.63;;;1.53;;
3547;SDS011;1788;49.400;11.092;2023-04-23T14:01:58;2.33;;;1.80;;
3547;SDS011;1788;49.400;11.092;2023-04-23T14:04:25;1.23;;;1.20;;
3547;SDS011;1788;49.400;11.092;2023-04-23T14:06:52;1.53;;;1.43;;
3547;SDS011;1788;49.400;11.092;2023-04-23T14:09:19;2.03;;;1.10;;
3547;SDS011;1788;49.400;11.092;2023-04-23T14:11:46;1.47;;;1.37;;
3547;SDS011;1788;49.400;11.092;2023-04-23T14:14:13;1.37;;;1.30;;
3547;SDS011;1788;49.400;11.092;2023-04-23T14:16:40;1.40;;;1.30;;
3547;SDS011;1788;49.400;11.092;2023-04-23T14:19:07;1.63;;;1.10;;
3547;SDS011;1788;49.400;11.092;2023-04-23T14:21:34;2.13;;;1.33;;
3547;SDS011;1788;49.400;11.092;2023-04-23T14:24:01;1.40;;;1.30;;
3547;SDS011;1788;49.400;11.092;2023-04-23T14:26:34;1.30;;;1.23;;
3547;SDS011;1788;49.400;11.092;2023-04-23T14:28:55;1.50;;;1.37;;
3547;SDS011;1788;49.400;11.092;2023-04-23T14:31:21;1.43;;;1.13;;
3547;SDS011;1788;49.400;11.092;2023-04-23T14:33:48;1.13;;;1.03;;
3547;SDS011;1788;49.400;11.092;2023-04-23T14:36:14;1.00;;;0.90;;
3547;SDS011;1788;49.400;11.092;2023-04-23T14:38:41;1.17;;;1.07;;
3547;SDS011;1788;49.400;11.092;2023-04-23T14:41:07;1.00;;;0.90;;
3547;SDS011;1788;49.400;11.092;2023-04-23T14:43:34;1.20;;;1.10;;
3547;SDS011;1788;49.400;11.092;2023-04-23T14:46:01;1.50;;;1.13;;
3547;SDS011;1788;49.400;11.092;2023-04-23T14:48:27;1.00;;;0.90;;
3547;SDS011;1788;49.400;11.092;2023-04-23T14:50:54;1.63;;;1.00;;
3547;SDS011;1788;49.400;11.092;2023-04-23T14:53:21;1.30;;;1.20;;
3547;SDS011;1788;49.400;11.092;2023-04-23T14:55:48;1.03;;;0.93;;
3547;SDS011;1788;49.400;11.092;2023-04-23T14:58:14;1.17;;;1.10;;
3547;SDS011;1788;49.400;11.092;2023-04-23T15:00:42;1.20;;;1.10;;
3547;SDS011;1788;49.400;11.092;2023-04-23T15:03:08;1.07;;;1.00;;
3547;SDS011;1788;49.400;11.092;2023-04-23T15:05:36;1.30;;;1.20;;
3547;SDS011;1788;49.400;11.092;2023-04-23T15:08:02;1.27;;;1.13;;
3547;SDS011;1788;49.400;11.092;2023-04-23T15:10:30;1.67;;;1.57;;
3547;SDS011;1788;49.400;11.092;2023-04-23T15:15:27;1.20;;;1.10;;
3547;SDS011;1788;49.400;11.092;2023-04-23T15:17:51;1.97;;;1.33;;
3547;SDS011;1788;49.400;11.092;2023-04-23T15:20:17;1.63;;;1.17;;
3547;SDS011;1788;49.400;11.092;2023-04-23T15:22:44;2.20;;;1.40;;
3547;SDS011;1788;49.400;11.092;2023-04-23T15:25:10;1.40;;;1.30;;
3547;SDS011;1788;49.400;11.092;2023-04-23T15:27:38;2.43;;;2.10;;